sensor_id;sensor_type;location;lat;lon;timestamp;P1;durP1;ratioP1;P2;durP2;ratioP2
56824;SDS011;42705;50.326;18.772;2023-02-26T00:00:41;7.00;;;4.70;;
56824;SDS011;42705;50.326;18.772;2023-02-26T00:06:23;9.70;;;6.30;;
56824;SDS011;42705;50.326;18.772;2023-02-26T00:11:47;8.60;;;5.10;;
56824;SDS011;42705;50.326;18.772;2023-02-26T00:22:34;9.20;;;5.20;;
56824;SDS011;42705;50.326;18.772;2023-02-26T00:27:56;6.20;;;4.30;;
56824;SDS011;42705;50.326;18.772;2023-02-26T00:33:19;9.90;;;5.30;;
56824;SDS011;42705;50.326;18.772;2023-02-26T00:38:42;9.60;;;5.30;;
56824;SDS011;42705;50.326;18.772;2023-02-26T00:44:10;7.60;;;4.20;;
56824;SDS011;42705;50.326;18.772;2023-02-26T00:55:31;9.30;;;5.50;;
56824;SDS011;42705;50.326;18.772;2023-02-26T01:00:53;8.10;;;5.50;;
56824;SDS011;42705;50.326;18.772;2023-02-26T01:06:16;9.20;;;5.50;;
56824;SDS011;42705;50.326;18.772;2023-02-26T01:11:41;7.50;;;4.80;;
56824;SDS011;42705;50.326;18.772;2023-02-26T01:22:59;7.50;;;4.10;;
56824;SDS011;42705;50.326;18.772;2023-02-26T01:28:25;8.30;;;4.80;;
56824;SDS011;42705;50.326;18.772;2023-02-26T01:33:50;6.80;;;4.70;;
56824;SDS011;42705;50.326;18.772;2023-02-26T01:39:18;8.60;;;5.10;;
56824;SDS011;42705;50.326;18.772;2023-02-26T01:50:24;7.20;;;3.50;;
56824;SDS011;42705;50.326;18.772;2023-02-26T01:55:57;7.10;;;3.90;;
56824;SDS011;42705;50.326;18.772;2023-02-26T02:01:23;6.00;;;3.70;;
56824;SDS011;42705;50.326;18.772;2023-02-26T02:06:45;3.90;;;2.70;;
56824;SDS011;42705;50.326;18.772;2023-02-26T02:17:49;12.60;;;4.90;;
56824;SDS011;42705;50.326;18.772;2023-02-26T02:23:19;7.40;;;4.30;;
56824;SDS011;42705;50.326;18.772;2023-02-26T02:34:33;8.10;;;4.10;;
56824;SDS011;42705;50.326;18.772;2023-02-26T02:51:21;5.70;;;3.30;;
56824;SDS011;42705;50.326;18.772;2023-02-26T02:56:55;9.30;;;4.40;;
56824;SDS011;42705;50.326;18.772;2023-02-26T03:08:22;5.50;;;3.20;;
56824;SDS011;42705;50.326;18.772;2023-02-26T03:13:48;7.50;;;3.80;;
56824;SDS011;42705;50.326;18.772;2023-02-26T03:25:30;5.80;;;3.70;;
56824;SDS011;42705;50.326;18.772;2023-02-26T03:31:04;5.00;;;3.50;;
56824;SDS011;42705;50.326;18.772;2023-02-26T03:36:34;7.00;;;3.80;;
56824;SDS011;42705;50.326;18.772;2023-02-26T03:42:17;6.00;;;4.00;;
56824;SDS011;42705;50.326;18.772;2023-02-26T03:47:51;4.30;;;2.90;;
56824;SDS011;42705;50.326;18.772;2023-02-26T03:53:18;4.60;;;2.60;;
56824;SDS011;42705;50.326;18.772;2023-02-26T03:58:52;7.60;;;2.70;;
56824;SDS011;42705;50.326;18.772;2023-02-26T04:10:08;5.90;;;2.70;;
56824;SDS011;42705;50.326;18.772;2023-02-26T04:15:31;5.60;;;2.80;;
56824;SDS011;42705;50.326;18.772;2023-02-26T04:20:53;9.60;;;3.60;;
56824;SDS011;42705;50.326;18.772;2023-02-26T04:26:15;6.60;;;3.10;;
56824;SDS011;42705;50.326;18.772;2023-02-26T04:31:39;8.10;;;3.80;;
56824;SDS011;42705;50.326;18.772;2023-02-26T04:37:01;6.70;;;3.20;;
56824;SDS011;42705;50.326;18.772;2023-02-26T04:42:24;5.90;;;3.10;;
56824;SDS011;42705;50.326;18.772;2023-02-26T04:47:46;4.40;;;2.90;;
56824;SDS011;42705;50.326;18.772;2023-02-26T04:53:08;6.90;;;3.30;;
56824;SDS011;42705;50.326;18.772;2023-02-26T04:58:31;11.20;;;3.80;;
56824;SDS011;42705;50.326;18.772;2023-02-26T05:03:57;5.00;;;3.20;;
56824;SDS011;42705;50.326;18.772;2023-02-26T05:09:20;8.60;;;3.10;;
56824;SDS011;42705;50.326;18.772;2023-02-26T05:14:42;7.40;;;3.90;;
56824;SDS011;42705;50.326;18.772;2023-02-26T05:20:06;10.00;;;4.20;;
56824;SDS011;42705;50.326;18.772;2023-02-26T05:25:32;8.90;;;4.30;;
56824;SDS011;42705;50.326;18.772;2023-02-26T05:30:54;8.80;;;4.30;;
56824;SDS011;42705;50.326;18.772;2023-02-26T05:36:17;7.00;;;4.00;;
56824;SDS011;42705;50.326;18.772;2023-02-26T05:41:39;9.10;;;4.80;;
56824;SDS011;42705;50.326;18.772;2023-02-26T05:47:01;9.00;;;4.40;;
56824;SDS011;42705;50.326;18.772;2023-02-26T05:52:23;11.30;;;4.50;;
56824;SDS011;42705;50.326;18.772;2023-02-26T05:57:45;11.00;;;4.60;;
56824;SDS011;42705;50.326;18.772;2023-02-26T06:03:07;9.00;;;4.30;;
56824;SDS011;42705;50.326;18.772;2023-02-26T06:08:29;8.70;;;4.70;;
56824;SDS011;42705;50.326;18.772;2023-02-26T06:13:50;9.70;;;5.60;;
56824;SDS011;42705;50.326;18.772;2023-02-26T06:19:12;14.40;;;5.70;;
56824;SDS011;42705;50.326;18.772;2023-02-26T06:24:34;7.90;;;4.60;;
56824;SDS011;42705;50.326;18.772;2023-02-26T06:29:56;7.60;;;4.40;;
56824;SDS011;42705;50.326;18.772;2023-02-26T06:35:18;6.80;;;4.60;;
56824;SDS011;42705;50.326;18.772;2023-02-26T06:40:40;7.90;;;4.70;;
56824;SDS011;42705;50.326;18.772;2023-02-26T06:46:02;5.40;;;3.70;;
56824;SDS011;42705;50.326;18.772;2023-02-26T06:51:24;5.60;;;4.00;;
56824;SDS011;42705;50.326;18.772;2023-02-26T06:56:46;7.90;;;4.50;;
56824;SDS011;42705;50.326;18.772;2023-02-26T07:02:11;6.30;;;4.60;;
56824;SDS011;42705;50.326;18.772;2023-02-26T07:07:37;10.80;;;5.60;;
56824;SDS011;42705;50.326;18.772;2023-02-26T07:13:00;9.40;;;6.00;;
56824;SDS011;42705;50.326;18.772;2023-02-26T07:18:22;16.20;;;7.50;;
56824;SDS011;42705;50.326;18.772;2023-02-26T07:23:44;11.00;;;5.50;;
56824;SDS011;42705;50.326;18.772;2023-02-26T07:29:06;15.40;;;8.00;;
56824;SDS011;42705;50.326;18.772;2023-02-26T07:34:29;14.40;;;7.10;;
56824;SDS011;42705;50.326;18.772;2023-02-26T07:39:51;10.30;;;5.80;;
56824;SDS011;42705;50.326;18.772;2023-02-26T07:45:13;12.10;;;6.70;;
56824;SDS011;42705;50.326;18.772;2023-02-26T07:50:38;12.40;;;7.30;;
56824;SDS011;42705;50.326;18.772;2023-02-26T07:56:00;11.60;;;6.30;;
56824;SDS011;42705;50.326;18.772;2023-02-26T08:01:21;11.90;;;7.20;;
56824;SDS011;42705;50.326;18.772;2023-02-26T08:06:43;10.10;;;6.20;;
56824;SDS011;42705;50.326;18.772;2023-02-26T08:12:06;9.20;;;6.10;;
56824;SDS011;42705;50.326;18.772;2023-02-26T08:17:28;11.20;;;5.60;;
56824;SDS011;42705;50.326;18.772;2023-02-26T08:22:50;6.20;;;3.80;;
56824;SDS011;42705;50.326;18.772;2023-02-26T08:28:12;7.00;;;4.10;;
56824;SDS011;42705;50.326;18.772;2023-02-26T08:33:34;6.90;;;4.30;;
56824;SDS011;42705;50.326;18.772;2023-02-26T08:38:56;6.40;;;4.50;;
56824;SDS011;42705;50.326;18.772;2023-02-26T08:44:19;7.80;;;4.60;;
56824;SDS011;42705;50.326;18.772;2023-02-26T08:49:40;6.50;;;4.10;;
56824;SDS011;42705;50.326;18.772;2023-02-26T09:01:57;5.30;;;2.40;;
56824;SDS011;42705;50.326;18.772;2023-02-26T09:07:19;3.60;;;1.80;;
56824;SDS011;42705;50.326;18.772;2023-02-26T09:12:41;3.10;;;2.00;;
56824;SDS011;42705;50.326;18.772;2023-02-26T09:18:04;5.60;;;3.10;;
56824;SDS011;42705;50.326;18.772;2023-02-26T09:23:26;2.60;;;2.00;;
56824;SDS011;42705;50.326;18.772;2023-02-26T09:28:48;4.30;;;2.40;;
56824;SDS011;42705;50.326;18.772;2023-02-26T09:34:10;5.20;;;2.40;;
56824;SDS011;42705;50.326;18.772;2023-02-26T09:39:36;9.20;;;2.90;;
56824;SDS011;42705;50.326;18.772;2023-02-26T09:44:57;4.60;;;2.60;;
56824;SDS011;42705;50.326;18.772;2023-02-26T09:50:21;5.70;;;3.00;;
56824;SDS011;42705;50.326;18.772;2023-02-26T09:55:49;3.70;;;2.10;;
56824;SDS011;42705;50.326;18.772;2023-02-26T10:01:33;4.40;;;2.30;;
56824;SDS011;42705;50.326;18.772;2023-02-26T10:12:39;5.60;;;3.10;;
56824;SDS011;42705;50.326;18.772;2023-02-26T10:29:53;4.50;;;2.90;;
56824;SDS011;42705;50.326;18.772;2023-02-26T10:35:23;4.80;;;2.90;;
56824;SDS011;42705;50.326;18.772;2023-02-26T10:41:04;6.70;;;3.80;;
56824;SDS011;42705;50.326;18.772;2023-02-26T10:46:36;5.90;;;2.60;;
56824;SDS011;42705;50.326;18.772;2023-02-26T10:52:15;4.10;;;2.80;;
56824;SDS011;42705;50.326;18.772;2023-02-26T10:57:41;4.90;;;2.20;;
56824;SDS011;42705;50.326;18.772;2023-02-26T11:03:11;3.60;;;1.90;;
56824;SDS011;42705;50.326;18.772;2023-02-26T11:08:39;4.40;;;2.10;;
56824;SDS011;42705;50.326;18.772;2023-02-26T11:14:04;5.90;;;2.40;;
56824;SDS011;42705;50.326;18.772;2023-02-26T11:19:38;5.30;;;2.50;;
56824;SDS011;42705;50.326;18.772;2023-02-26T11:25:12;7.20;;;3.30;;
56824;SDS011;42705;50.326;18.772;2023-02-26T11:30:36;8.10;;;3.80;;
56824;SDS011;42705;50.326;18.772;2023-02-26T11:35:59;6.50;;;3.50;;
56824;SDS011;42705;50.326;18.772;2023-02-26T11:41:24;8.60;;;3.50;;
56824;SDS011;42705;50.326;18.772;2023-02-26T11:46:52;7.10;;;2.90;;
56824;SDS011;42705;50.326;18.772;2023-02-26T11:52:33;4.70;;;2.10;;
56824;SDS011;42705;50.326;18.772;2023-02-26T11:58:16;4.40;;;2.70;;
56824;SDS011;42705;50.326;18.772;2023-02-26T12:03:59;6.10;;;3.10;;
56824;SDS011;42705;50.326;18.772;2023-02-26T12:09:23;5.90;;;2.50;;
56824;SDS011;42705;50.326;18.772;2023-02-26T12:37:06;8.70;;;4.20;;
56824;SDS011;42705;50.326;18.772;2023-02-26T12:42:58;7.70;;;4.00;;
56824;SDS011;42705;50.326;18.772;2023-02-26T13:17:25;9.00;;;5.60;;
56824;SDS011;42705;50.326;18.772;2023-02-26T13:23:10;9.80;;;6.20;;
56824;SDS011;42705;50.326;18.772;2023-02-26T13:28:40;12.80;;;6.90;;
56824;SDS011;42705;50.326;18.772;2023-02-26T13:34:09;11.90;;;6.30;;
56824;SDS011;42705;50.326;18.772;2023-02-26T13:39:38;15.10;;;6.00;;
56824;SDS011;42705;50.326;18.772;2023-02-26T13:45:16;12.40;;;6.20;;
56824;SDS011;42705;50.326;18.772;2023-02-26T14:01:56;21.20;;;9.50;;
56824;SDS011;42705;50.326;18.772;2023-02-26T14:13:34;15.60;;;5.50;;
56824;SDS011;42705;50.326;18.772;2023-02-26T14:19:18;14.10;;;7.40;;
56824;SDS011;42705;50.326;18.772;2023-02-26T14:35:41;20.90;;;8.50;;
56824;SDS011;42705;50.326;18.772;2023-02-26T14:46:57;19.10;;;8.20;;
56824;SDS011;42705;50.326;18.772;2023-02-26T15:09:36;16.60;;;8.00;;
56824;SDS011;42705;50.326;18.772;2023-02-26T15:37:50;16.30;;;6.80;;
56824;SDS011;42705;50.326;18.772;2023-02-26T15:43:15;19.70;;;8.50;;
56824;SDS011;42705;50.326;18.772;2023-02-26T15:48:45;17.10;;;7.50;;
56824;SDS011;42705;50.326;18.772;2023-02-26T15:54:08;20.90;;;8.70;;
56824;SDS011;42705;50.326;18.772;2023-02-26T15:59:41;17.80;;;6.60;;
56824;SDS011;42705;50.326;18.772;2023-02-26T16:05:07;18.30;;;8.40;;
56824;SDS011;42705;50.326;18.772;2023-02-26T16:10:35;15.40;;;6.30;;
56824;SDS011;42705;50.326;18.772;2023-02-26T16:16:01;18.40;;;8.70;;
56824;SDS011;42705;50.326;18.772;2023-02-26T16:21:32;21.20;;;9.30;;
56824;SDS011;42705;50.326;18.772;2023-02-26T16:27:01;24.40;;;11.10;;
56824;SDS011;42705;50.326;18.772;2023-02-26T16:32:30;32.60;;;10.90;;
56824;SDS011;42705;50.326;18.772;2023-02-26T16:37:54;29.40;;;11.10;;
56824;SDS011;42705;50.326;18.772;2023-02-26T16:54:19;32.20;;;11.60;;
56824;SDS011;42705;50.326;18.772;2023-02-26T16:59:47;32.20;;;15.00;;
56824;SDS011;42705;50.326;18.772;2023-02-26T17:05:19;40.30;;;16.90;;
56824;SDS011;42705;50.326;18.772;2023-02-26T17:10:48;46.00;;;19.10;;
56824;SDS011;42705;50.326;18.772;2023-02-26T17:16:14;47.30;;;20.40;;
56824;SDS011;42705;50.326;18.772;2023-02-26T17:21:41;37.20;;;17.40;;
56824;SDS011;42705;50.326;18.772;2023-02-26T17:27:06;49.50;;;20.90;;
56824;SDS011;42705;50.326;18.772;2023-02-26T17:32:32;70.40;;;33.20;;
56824;SDS011;42705;50.326;18.772;2023-02-26T17:43:21;71.50;;;32.50;;
56824;SDS011;42705;50.326;18.772;2023-02-26T17:48:43;58.50;;;27.20;;
56824;SDS011;42705;50.326;18.772;2023-02-26T17:54:05;64.20;;;26.10;;
56824;SDS011;42705;50.326;18.772;2023-02-26T17:59:27;57.70;;;25.10;;
56824;SDS011;42705;50.326;18.772;2023-02-26T18:04:49;52.70;;;22.10;;
56824;SDS011;42705;50.326;18.772;2023-02-26T18:10:19;44.70;;;19.90;;
56824;SDS011;42705;50.326;18.772;2023-02-26T18:15:43;71.20;;;27.90;;
56824;SDS011;42705;50.326;18.772;2023-02-26T18:21:05;105.00;;;40.50;;
56824;SDS011;42705;50.326;18.772;2023-02-26T18:26:31;79.10;;;33.70;;
56824;SDS011;42705;50.326;18.772;2023-02-26T18:31:54;80.70;;;36.50;;
56824;SDS011;42705;50.326;18.772;2023-02-26T18:37:23;68.40;;;27.60;;
56824;SDS011;42705;50.326;18.772;2023-02-26T18:42:47;55.30;;;25.40;;
56824;SDS011;42705;50.326;18.772;2023-02-26T18:48:14;77.90;;;32.90;;
56824;SDS011;42705;50.326;18.772;2023-02-26T18:53:38;58.90;;;24.50;;
56824;SDS011;42705;50.326;18.772;2023-02-26T18:59:01;42.20;;;21.00;;
56824;SDS011;42705;50.326;18.772;2023-02-26T19:04:23;31.80;;;15.40;;
56824;SDS011;42705;50.326;18.772;2023-02-26T19:09:45;34.40;;;16.90;;
56824;SDS011;42705;50.326;18.772;2023-02-26T19:15:08;44.00;;;22.00;;
56824;SDS011;42705;50.326;18.772;2023-02-26T19:20:31;53.10;;;26.00;;
56824;SDS011;42705;50.326;18.772;2023-02-26T19:25:54;41.40;;;20.70;;
56824;SDS011;42705;50.326;18.772;2023-02-26T19:31:16;50.40;;;24.40;;
56824;SDS011;42705;50.326;18.772;2023-02-26T19:36:39;50.30;;;22.80;;
56824;SDS011;42705;50.326;18.772;2023-02-26T19:42:08;45.10;;;20.80;;
56824;SDS011;42705;50.326;18.772;2023-02-26T19:47:31;23.70;;;11.80;;
56824;SDS011;42705;50.326;18.772;2023-02-26T19:52:53;26.20;;;11.20;;
56824;SDS011;42705;50.326;18.772;2023-02-26T20:03:40;28.10;;;13.20;;
56824;SDS011;42705;50.326;18.772;2023-02-26T20:09:02;30.10;;;13.30;;
56824;SDS011;42705;50.326;18.772;2023-02-26T20:14:27;27.60;;;13.50;;
56824;SDS011;42705;50.326;18.772;2023-02-26T20:19:49;27.20;;;9.90;;
56824;SDS011;42705;50.326;18.772;2023-02-26T20:25:11;28.80;;;11.50;;
56824;SDS011;42705;50.326;18.772;2023-02-26T20:30:36;23.40;;;9.70;;
56824;SDS011;42705;50.326;18.772;2023-02-26T20:41:23;33.30;;;14.10;;
56824;SDS011;42705;50.326;18.772;2023-02-26T20:46:45;27.60;;;11.50;;
56824;SDS011;42705;50.326;18.772;2023-02-26T20:52:07;25.80;;;10.80;;
56824;SDS011;42705;50.326;18.772;2023-02-26T20:57:29;27.10;;;11.70;;
56824;SDS011;42705;50.326;18.772;2023-02-26T21:02:53;26.60;;;10.30;;
56824;SDS011;42705;50.326;18.772;2023-02-26T21:08:14;20.20;;;9.90;;
56824;SDS011;42705;50.326;18.772;2023-02-26T21:13:36;23.80;;;10.40;;
56824;SDS011;42705;50.326;18.772;2023-02-26T21:24:45;19.90;;;9.00;;
56824;SDS011;42705;50.326;18.772;2023-02-26T21:30:09;23.80;;;9.60;;
56824;SDS011;42705;50.326;18.772;2023-02-26T21:35:32;26.50;;;10.10;;
56824;SDS011;42705;50.326;18.772;2023-02-26T21:40:55;24.50;;;9.30;;
56824;SDS011;42705;50.326;18.772;2023-02-26T21:46:17;24.40;;;9.00;;
56824;SDS011;42705;50.326;18.772;2023-02-26T21:51:39;27.60;;;11.00;;
56824;SDS011;42705;50.326;18.772;2023-02-26T21:57:01;26.50;;;10.00;;
56824;SDS011;42705;50.326;18.772;2023-02-26T22:02:23;21.60;;;8.10;;
56824;SDS011;42705;50.326;18.772;2023-02-26T22:07:45;24.70;;;8.20;;
56824;SDS011;42705;50.326;18.772;2023-02-26T22:13:10;19.30;;;8.10;;
56824;SDS011;42705;50.326;18.772;2023-02-26T22:18:33;20.80;;;7.20;;
56824;SDS011;42705;50.326;18.772;2023-02-26T22:23:55;16.80;;;6.70;;
56824;SDS011;42705;50.326;18.772;2023-02-26T22:29:17;22.50;;;8.30;;
56824;SDS011;42705;50.326;18.772;2023-02-26T22:34:39;18.80;;;7.40;;
56824;SDS011;42705;50.326;18.772;2023-02-26T22:40:01;24.80;;;8.10;;
56824;SDS011;42705;50.326;18.772;2023-02-26T22:45:24;17.90;;;7.30;;
56824;SDS011;42705;50.326;18.772;2023-02-26T22:50:46;17.10;;;6.20;;
56824;SDS011;42705;50.326;18.772;2023-02-26T22:56:09;18.80;;;6.60;;
56824;SDS011;42705;50.326;18.772;2023-02-26T23:01:31;12.80;;;5.40;;
56824;SDS011;42705;50.326;18.772;2023-02-26T23:06:53;16.10;;;5.30;;
56824;SDS011;42705;50.326;18.772;2023-02-26T23:12:15;12.00;;;4.50;;
56824;SDS011;42705;50.326;18.772;2023-02-26T23:17:37;14.20;;;4.40;;
56824;SDS011;42705;50.326;18.772;2023-02-26T23:22:59;12.60;;;5.00;;
56824;SDS011;42705;50.326;18.772;2023-02-26T23:28:22;11.50;;;4.30;;
56824;SDS011;42705;50.326;18.772;2023-02-26T23:33:44;16.70;;;5.60;;
56824;SDS011;42705;50.326;18.772;2023-02-26T23:39:06;14.70;;;5.00;;
56824;SDS011;42705;50.326;18.772;2023-02-26T23:44:29;18.70;;;6.10;;
56824;SDS011;42705;50.326;18.772;2023-02-26T23:49:51;13.20;;;5.30;;
56824;SDS011;42705;50.326;18.772;2023-02-26T23:55:13;11.80;;;4.70;;
